METAR

Station
VRMM
METAR VRMM 240500Z 28011KT 9999 SCT018TCU BKN280 31/25 Q1012 NOSIG=
VRMH
METAR VRMH 240500Z 29009KT 9999 FEW017TCU BKN260 30/26 Q1012=
VRMK
METAR VRMK 240500Z VRB01KT 9999 FEW018 BKN260 31/25 Q1013=
VRMT
METAR VRMT 240500Z 28006KT 9999 FEW018TCU BKN260 31/25 Q1012=
VRMG
METAR VRMG 240500Z 27005KT 9999 FEW018TCU SCT130 BKN260 30/24 Q1012 NOSIG=
Last Updated : 2021-06-24 10:00:13

SPECI

Station
VRMM
VRMH
VRMK
VRMT
VRMG
Last Updated : 2021-06-24 10:00:13